createdAt,value
2022-11-08T00:00:16.999Z,0.00
2022-11-08T00:01:17.012Z,0.00
2022-11-08T00:02:17.110Z,0.00
2022-11-08T00:03:17.083Z,0.00
2022-11-08T00:04:16.946Z,0.00
2022-11-08T00:05:16.950Z,0.00
2022-11-08T00:06:16.938Z,0.00
2022-11-08T00:07:16.919Z,0.00
2022-11-08T00:08:17.114Z,0.00
2022-11-08T00:09:16.924Z,0.00
2022-11-08T00:10:16.890Z,0.00
2022-11-08T00:11:16.900Z,0.00
2022-11-08T00:12:16.880Z,0.00
2022-11-08T00:13:17.588Z,0.00
2022-11-08T00:14:16.830Z,0.00
2022-11-08T00:15:16.830Z,0.00
2022-11-08T00:16:16.842Z,0.00
2022-11-08T00:17:16.804Z,0.00
2022-11-08T00:18:17.113Z,0.00
2022-11-08T00:19:17.801Z,0.00
2022-11-08T00:20:16.772Z,0.00
2022-11-08T00:21:16.845Z,0.00
2022-11-08T00:22:17.009Z,0.00
2022-11-08T00:23:16.733Z,0.00
2022-11-08T00:24:16.721Z,0.00
2022-11-08T00:25:16.732Z,0.00
2022-11-08T00:26:16.722Z,0.00
2022-11-08T00:27:16.690Z,0.00
2022-11-08T00:28:17.127Z,0.00
2022-11-08T00:29:16.691Z,0.00
2022-11-08T00:30:16.665Z,0.00
2022-11-08T00:31:16.697Z,0.00
2022-11-08T00:32:16.655Z,0.00
2022-11-08T00:33:16.623Z,0.00
2022-11-08T00:34:16.617Z,0.00
2022-11-08T00:35:16.605Z,0.00
2022-11-08T00:36:16.639Z,0.00
2022-11-08T00:37:16.574Z,0.00
2022-11-08T00:38:16.999Z,0.00
2022-11-08T00:39:16.557Z,0.00
2022-11-08T00:40:16.571Z,0.00
2022-11-08T00:41:16.564Z,0.00
2022-11-08T00:42:16.538Z,0.00
2022-11-08T00:43:16.978Z,0.00
2022-11-08T00:44:16.492Z,0.00
2022-11-08T00:45:16.491Z,0.00
2022-11-08T00:46:16.485Z,0.00
2022-11-08T00:47:16.474Z,0.00
2022-11-08T00:48:16.817Z,0.00
2022-11-08T00:49:16.444Z,0.00
2022-11-08T00:50:16.417Z,0.00
2022-11-08T00:51:16.423Z,0.00
2022-11-08T00:52:16.433Z,0.00
2022-11-08T00:53:16.385Z,0.00
2022-11-08T00:54:16.376Z,0.00
2022-11-08T00:55:16.365Z,0.00
2022-11-08T00:56:16.375Z,0.00
2022-11-08T00:57:16.340Z,0.00
2022-11-08T00:58:16.635Z,0.00
2022-11-08T00:59:16.329Z,0.00
2022-11-08T01:00:16.305Z,0.00
2022-11-08T01:01:16.346Z,0.00
2022-11-08T01:02:16.322Z,0.00
2022-11-08T01:03:16.288Z,0.00
2022-11-08T01:04:16.267Z,0.00
2022-11-08T01:05:16.259Z,0.00
2022-11-08T01:06:16.507Z,0.00
2022-11-08T01:07:16.245Z,0.00
2022-11-08T01:08:16.592Z,0.00
2022-11-08T01:09:16.211Z,0.00
2022-11-08T01:10:16.199Z,0.00
2022-11-08T01:11:16.182Z,0.00
2022-11-08T01:12:16.463Z,0.00
2022-11-08T01:13:16.167Z,0.00
2022-11-08T01:14:16.138Z,0.00
2022-11-08T01:15:16.222Z,0.00
2022-11-08T01:16:16.131Z,0.00
2022-11-08T01:17:16.360Z,0.00
2022-11-08T01:18:16.495Z,0.00
2022-11-08T01:19:16.373Z,0.00
2022-11-08T01:20:16.073Z,0.00
2022-11-08T01:21:16.091Z,0.00
2022-11-08T01:22:16.058Z,0.00
2022-11-08T01:23:16.051Z,0.00
2022-11-08T01:24:16.028Z,0.00
2022-11-08T01:25:16.319Z,0.00
2022-11-08T01:26:16.032Z,0.00
2022-11-08T01:27:15.999Z,0.00
2022-11-08T01:28:16.287Z,0.00
2022-11-08T01:29:15.980Z,0.00
2022-11-08T01:30:15.949Z,0.00
2022-11-08T01:31:15.981Z,0.00
2022-11-08T01:32:15.950Z,0.00
2022-11-08T01:33:15.941Z,0.00
2022-11-08T01:34:15.911Z,0.00
2022-11-08T01:35:16.186Z,0.00
2022-11-08T01:36:16.166Z,0.00
2022-11-08T01:37:15.896Z,0.00
2022-11-08T01:38:16.290Z,0.00
2022-11-08T01:39:16.125Z,0.00
2022-11-08T01:40:15.963Z,0.00
2022-11-08T01:41:15.835Z,0.00
2022-11-08T01:42:15.848Z,0.00
2022-11-08T01:43:15.814Z,0.00
2022-11-08T01:44:15.802Z,0.00
2022-11-08T01:45:15.795Z,0.00
2022-11-08T01:46:15.782Z,0.00
2022-11-08T01:47:15.781Z,0.00
2022-11-08T01:48:16.187Z,0.00
2022-11-08T01:49:15.742Z,0.00
2022-11-08T01:50:15.745Z,0.00
2022-11-08T01:51:15.716Z,0.00
2022-11-08T01:52:16.559Z,0.00
2022-11-08T01:53:15.692Z,0.00
2022-11-08T01:54:15.692Z,0.00
2022-11-08T01:55:15.942Z,0.00
2022-11-08T01:56:15.681Z,0.00
2022-11-08T01:57:15.653Z,0.00
2022-11-08T01:58:16.042Z,0.00
2022-11-08T01:59:15.623Z,0.00
2022-11-08T02:00:15.619Z,0.00
2022-11-08T02:01:16.422Z,0.00
2022-11-08T02:02:15.661Z,0.00
2022-11-08T02:03:15.593Z,0.00
2022-11-08T02:04:15.576Z,0.00
2022-11-08T02:05:15.581Z,0.00
2022-11-08T02:06:15.557Z,0.00
2022-11-08T02:07:15.536Z,0.00
2022-11-08T02:08:16.844Z,0.00
2022-11-08T02:09:15.506Z,0.00
2022-11-08T02:10:15.517Z,0.00
2022-11-08T02:11:15.492Z,0.00
2022-11-08T02:12:16.385Z,0.00
2022-11-08T02:13:15.468Z,0.00
2022-11-08T02:14:15.447Z,0.00
2022-11-08T02:15:15.451Z,0.00
2022-11-08T02:16:15.460Z,0.00
2022-11-08T02:17:15.436Z,0.00
2022-11-08T02:18:15.808Z,0.00
2022-11-08T02:19:15.397Z,0.00
2022-11-08T02:20:15.636Z,0.00
2022-11-08T02:21:15.386Z,0.00
2022-11-08T02:22:15.357Z,0.00
2022-11-08T02:23:15.360Z,0.00
2022-11-08T02:24:15.325Z,0.00
2022-11-08T02:25:15.320Z,0.00
2022-11-08T02:26:15.327Z,0.00
2022-11-08T02:27:15.296Z,0.00
2022-11-08T02:28:15.548Z,0.00
2022-11-08T02:29:15.289Z,0.00
2022-11-08T02:30:15.265Z,0.00
2022-11-08T02:31:15.265Z,0.00
2022-11-08T02:32:15.259Z,0.00
2022-11-08T02:33:15.253Z,0.00
2022-11-08T02:34:15.232Z,0.00
2022-11-08T02:35:15.209Z,0.00
2022-11-08T02:36:15.479Z,0.00
2022-11-08T02:37:15.178Z,0.00
2022-11-08T02:38:15.425Z,0.00
2022-11-08T02:39:15.178Z,0.00
2022-11-08T02:40:16.028Z,0.00
2022-11-08T02:41:15.171Z,0.00
2022-11-08T02:42:15.403Z,0.00
2022-11-08T02:43:15.152Z,0.00
2022-11-08T02:44:15.132Z,0.00
2022-11-08T02:45:15.081Z,0.00
2022-11-08T02:46:15.111Z,0.00
2022-11-08T02:47:15.072Z,0.00
2022-11-08T02:48:15.389Z,0.00
2022-11-08T02:49:15.333Z,0.00
2022-11-08T02:50:15.047Z,0.00
2022-11-08T02:51:15.035Z,0.00
2022-11-08T02:52:15.033Z,0.00
2022-11-08T02:53:15.011Z,0.00
2022-11-08T02:54:14.990Z,0.00
2022-11-08T02:55:14.971Z,0.00
2022-11-08T02:56:15.270Z,0.00
2022-11-08T02:57:15.209Z,0.00
2022-11-08T02:58:15.185Z,0.00
2022-11-08T02:59:14.953Z,0.00
2022-11-08T03:00:15.191Z,0.00
2022-11-08T03:01:14.994Z,0.00
2022-11-08T03:02:15.002Z,0.00
2022-11-08T03:03:14.890Z,0.00
2022-11-08T03:04:14.872Z,0.00
2022-11-08T03:05:14.862Z,0.00
2022-11-08T03:06:14.871Z,0.00
2022-11-08T03:07:14.842Z,0.00
2022-11-08T03:08:15.121Z,0.00
2022-11-08T03:09:15.082Z,0.00
2022-11-08T03:10:15.068Z,0.00
2022-11-08T03:11:14.830Z,0.00
2022-11-08T03:12:14.779Z,0.00
2022-11-08T03:13:14.772Z,0.00
2022-11-08T03:14:14.749Z,0.00
2022-11-08T03:15:14.743Z,0.00
2022-11-08T03:16:14.765Z,0.00
2022-11-08T03:17:14.733Z,0.00
2022-11-08T03:18:14.813Z,0.00
2022-11-08T03:19:14.707Z,0.00
2022-11-08T03:20:14.688Z,0.00
2022-11-08T03:21:14.683Z,0.00
2022-11-08T03:22:14.664Z,0.00
2022-11-08T03:23:14.656Z,0.00
2022-11-08T03:24:19.171Z,0.00
2022-11-08T03:25:14.624Z,0.00
2022-11-08T03:26:14.669Z,0.00
2022-11-08T03:27:14.626Z,0.00
2022-11-08T03:28:17.144Z,0.00
2022-11-08T03:29:14.587Z,0.00
2022-11-08T03:30:14.577Z,0.00
2022-11-08T03:31:14.565Z,0.00
2022-11-08T03:32:14.555Z,0.00
2022-11-08T03:33:14.552Z,0.00
2022-11-08T03:34:14.506Z,0.00
2022-11-08T03:35:14.512Z,0.00
2022-11-08T03:36:14.534Z,0.00
2022-11-08T03:37:14.497Z,0.00
2022-11-08T03:38:14.487Z,0.00
2022-11-08T03:39:14.743Z,0.00
2022-11-08T03:40:14.455Z,0.00
2022-11-08T03:41:14.464Z,0.00
2022-11-08T03:42:14.422Z,0.00
2022-11-08T03:43:14.415Z,0.00
2022-11-08T03:44:14.394Z,0.00
2022-11-08T03:45:14.404Z,0.00
2022-11-08T03:46:14.677Z,0.00
2022-11-08T03:47:14.376Z,0.00
2022-11-08T03:48:14.367Z,0.00
2022-11-08T03:49:14.367Z,0.00
2022-11-08T03:50:14.612Z,0.00
2022-11-08T03:51:14.335Z,0.00
2022-11-08T03:52:14.308Z,0.00
2022-11-08T03:53:14.305Z,0.00
2022-11-08T03:54:14.296Z,0.00
2022-11-08T03:55:14.269Z,0.00
2022-11-08T03:56:14.301Z,0.00
2022-11-08T03:57:14.258Z,0.00
2022-11-08T03:58:14.289Z,0.00
2022-11-08T03:59:14.224Z,0.00
2022-11-08T04:00:14.519Z,0.00
2022-11-08T04:01:14.259Z,0.00
2022-11-08T04:02:14.318Z,0.00
2022-11-08T04:03:15.236Z,0.00
2022-11-08T04:04:14.178Z,0.00
2022-11-08T04:05:14.157Z,0.00
2022-11-08T04:06:14.157Z,0.00
2022-11-08T04:07:14.119Z,0.00
2022-11-08T04:08:14.197Z,0.00
2022-11-08T04:09:19.033Z,0.00
2022-11-08T04:10:15.101Z,0.00
2022-11-08T04:11:14.086Z,0.00
2022-11-08T04:12:14.068Z,0.00
2022-11-08T04:13:14.350Z,0.00
2022-11-08T04:14:14.342Z,0.00
2022-11-08T04:15:14.050Z,0.00
2022-11-08T04:16:17.902Z,0.00
2022-11-08T04:17:14.018Z,0.00
2022-11-08T04:18:14.007Z,0.00
2022-11-08T04:19:13.989Z,0.00
2022-11-08T04:20:13.986Z,0.00
2022-11-08T04:21:13.979Z,0.00
2022-11-08T04:22:13.950Z,0.00
2022-11-08T04:23:13.957Z,0.00
2022-11-08T04:24:13.940Z,0.00
2022-11-08T04:25:13.950Z,0.00
2022-11-08T04:26:13.932Z,0.00
2022-11-08T04:27:14.209Z,0.00
2022-11-08T04:28:13.885Z,0.00
2022-11-08T04:29:13.890Z,0.00
2022-11-08T04:30:13.869Z,0.00
2022-11-08T04:31:13.899Z,0.00
2022-11-08T04:32:13.830Z,0.00
2022-11-08T04:33:13.841Z,0.00
2022-11-08T04:34:13.824Z,0.00
2022-11-08T04:35:13.810Z,0.00
2022-11-08T04:36:13.804Z,0.00
2022-11-08T04:37:14.061Z,0.00
2022-11-08T04:38:13.761Z,0.00
2022-11-08T04:39:13.759Z,0.00
2022-11-08T04:40:14.012Z,0.00
2022-11-08T04:41:13.758Z,0.00
2022-11-08T04:42:13.721Z,0.00
2022-11-08T04:43:13.720Z,0.00
2022-11-08T04:44:13.692Z,0.00
2022-11-08T04:45:13.693Z,0.00
2022-11-08T04:46:13.682Z,0.00
2022-11-08T04:47:13.654Z,0.00
2022-11-08T04:48:13.651Z,0.00
2022-11-08T04:49:14.396Z,0.00
2022-11-08T04:50:13.654Z,0.00
2022-11-08T04:51:13.631Z,0.00
2022-11-08T04:52:13.604Z,0.00
2022-11-08T04:53:14.532Z,0.00
2022-11-08T04:54:13.593Z,0.00
2022-11-08T04:55:13.564Z,0.00
2022-11-08T04:56:13.563Z,0.00
2022-11-08T04:57:13.573Z,0.00
2022-11-08T04:58:13.534Z,0.00
2022-11-08T04:59:13.517Z,0.00
2022-11-08T05:00:13.784Z,0.00
2022-11-08T05:01:13.902Z,0.00
2022-11-08T05:02:13.663Z,0.00
2022-11-08T05:03:13.491Z,0.00
2022-11-08T05:04:13.474Z,0.00
2022-11-08T05:05:13.444Z,0.00
2022-11-08T05:06:13.453Z,0.00
2022-11-08T05:07:13.439Z,0.00
2022-11-08T05:08:13.415Z,0.00
2022-11-08T05:09:13.415Z,0.00
2022-11-08T05:10:13.664Z,0.00
2022-11-08T05:11:13.685Z,0.00
2022-11-08T05:12:13.378Z,0.00
2022-11-08T05:13:13.389Z,0.00
2022-11-08T05:14:13.385Z,0.00
2022-11-08T05:15:13.334Z,0.00
2022-11-08T05:16:13.335Z,0.00
2022-11-08T05:17:13.594Z,0.00
2022-11-08T05:18:13.320Z,0.00
2022-11-08T05:19:13.553Z,0.00
2022-11-08T05:20:13.295Z,0.00
2022-11-08T05:21:13.285Z,0.00
2022-11-08T05:22:13.266Z,0.00
2022-11-08T05:23:13.265Z,0.00
2022-11-08T05:24:13.245Z,0.00
2022-11-08T05:25:13.229Z,0.00
2022-11-08T05:26:13.234Z,0.00
2022-11-08T05:27:13.213Z,0.00
2022-11-08T05:28:13.194Z,0.00
2022-11-08T05:29:13.169Z,0.00
2022-11-08T05:30:13.178Z,0.00
2022-11-08T05:31:13.175Z,0.00
2022-11-08T05:32:13.159Z,0.00
2022-11-08T05:33:13.144Z,0.00
2022-11-08T05:34:13.139Z,0.00
2022-11-08T05:35:13.110Z,0.00
2022-11-08T05:36:13.227Z,0.00
2022-11-08T05:37:13.085Z,0.00
2022-11-08T05:38:13.078Z,0.00
2022-11-08T05:39:13.059Z,0.00
2022-11-08T05:40:13.067Z,0.00
2022-11-08T05:41:13.060Z,0.00
2022-11-08T05:42:13.919Z,0.00
2022-11-08T05:43:13.025Z,0.00
2022-11-08T05:44:13.317Z,0.00
2022-11-08T05:45:13.001Z,0.00
2022-11-08T05:46:12.989Z,0.00
2022-11-08T05:47:13.288Z,0.00
2022-11-08T05:48:13.227Z,0.00
2022-11-08T05:49:12.940Z,0.00
2022-11-08T05:50:18.241Z,0.00
2022-11-08T05:51:13.966Z,0.00
2022-11-08T05:52:12.924Z,0.00
2022-11-08T05:53:12.917Z,0.00
2022-11-08T05:54:13.181Z,0.00
2022-11-08T05:55:12.877Z,0.00
2022-11-08T05:56:12.880Z,0.00
2022-11-08T05:57:12.929Z,0.00
2022-11-08T05:58:12.849Z,0.00
2022-11-08T05:59:12.849Z,0.00
2022-11-08T06:00:12.833Z,0.00
2022-11-08T06:01:13.098Z,0.00
2022-11-08T06:02:12.868Z,0.00
2022-11-08T06:03:12.838Z,0.00
2022-11-08T06:04:12.782Z,0.00
2022-11-08T06:05:12.780Z,0.00
2022-11-08T06:06:12.749Z,0.00
2022-11-08T06:07:12.741Z,0.00
2022-11-08T06:08:12.734Z,0.00
2022-11-08T06:09:12.715Z,0.00
2022-11-08T06:10:12.702Z,0.00
2022-11-08T06:11:12.708Z,0.00
2022-11-08T06:12:12.673Z,0.00
2022-11-08T06:13:12.658Z,0.00
2022-11-08T06:14:13.451Z,0.00
2022-11-08T06:15:12.623Z,0.00
2022-11-08T06:16:12.661Z,0.00
2022-11-08T06:17:12.631Z,0.00
2022-11-08T06:18:12.602Z,0.00
2022-11-08T06:19:12.584Z,0.00
2022-11-08T06:20:12.860Z,0.00
2022-11-08T06:21:12.853Z,0.00
2022-11-08T06:22:12.560Z,0.00
2022-11-08T06:23:13.572Z,0.00
2022-11-08T06:24:12.563Z,0.00
2022-11-08T06:25:12.521Z,0.00
2022-11-08T06:26:12.523Z,5.62
2022-11-08T06:27:12.524Z,5.62
2022-11-08T06:28:12.512Z,5.62
2022-11-08T06:29:12.480Z,5.62
2022-11-08T06:30:12.484Z,5.62
2022-11-08T06:31:12.474Z,5.62
2022-11-08T06:32:12.443Z,5.62
2022-11-08T06:33:12.479Z,11.25
2022-11-08T06:34:12.435Z,11.25
2022-11-08T06:35:12.422Z,11.25
2022-11-08T06:36:12.403Z,11.25
2022-11-08T06:37:12.564Z,16.88
2022-11-08T06:38:12.381Z,16.88
2022-11-08T06:39:12.373Z,16.88
2022-11-08T06:40:12.642Z,16.88
2022-11-08T06:41:12.386Z,22.50
2022-11-08T06:42:12.335Z,22.50
2022-11-08T06:43:18.022Z,22.50
2022-11-08T06:44:13.315Z,22.50
2022-11-08T06:45:12.516Z,28.12
2022-11-08T06:46:12.284Z,28.12
2022-11-08T06:47:12.291Z,28.12
2022-11-08T06:48:12.255Z,33.75
2022-11-08T06:49:12.244Z,33.75
2022-11-08T06:50:12.235Z,33.75
2022-11-08T06:51:12.237Z,39.38
2022-11-08T06:52:12.216Z,39.38
2022-11-08T06:53:12.248Z,39.38
2022-11-08T06:54:17.581Z,39.38
2022-11-08T06:55:13.175Z,39.38
2022-11-08T06:56:12.168Z,45.00
2022-11-08T06:57:13.395Z,45.00
2022-11-08T06:58:12.159Z,50.62
2022-11-08T06:59:12.127Z,50.62
2022-11-08T07:00:12.123Z,50.62
2022-11-08T07:01:12.180Z,56.25
2022-11-08T07:02:12.170Z,56.25
2022-11-08T07:03:12.136Z,56.25
2022-11-08T07:04:12.085Z,61.88
2022-11-08T07:05:12.063Z,61.88
2022-11-08T07:06:12.058Z,61.88
2022-11-08T07:07:12.046Z,61.88
2022-11-08T07:08:12.019Z,61.88
2022-11-08T07:09:12.009Z,61.88
2022-11-08T07:10:13.151Z,61.88
2022-11-08T07:11:12.023Z,67.50
2022-11-08T07:12:11.982Z,67.50
2022-11-08T07:13:11.971Z,67.50
2022-11-08T07:14:12.295Z,73.12
2022-11-08T07:15:11.942Z,73.12
2022-11-08T07:16:11.948Z,78.75
2022-11-08T07:17:11.918Z,84.38
2022-11-08T07:18:11.971Z,84.38
2022-11-08T07:19:11.886Z,90.00
2022-11-08T07:20:11.924Z,90.00
2022-11-08T07:21:11.889Z,90.00
2022-11-08T07:22:11.859Z,90.00
2022-11-08T07:23:12.808Z,95.62
2022-11-08T07:24:11.852Z,95.62
2022-11-08T07:25:11.820Z,95.62
2022-11-08T07:26:11.819Z,101.25
2022-11-08T07:27:11.831Z,101.25
2022-11-08T07:28:11.790Z,101.25
2022-11-08T07:29:15.806Z,101.25
2022-11-08T07:30:12.782Z,106.88
2022-11-08T07:31:11.805Z,106.88
2022-11-08T07:32:11.741Z,112.50
2022-11-08T07:33:11.742Z,112.50
2022-11-08T07:34:12.582Z,112.50
2022-11-08T07:35:11.701Z,112.50
2022-11-08T07:36:11.731Z,112.50
2022-11-08T07:37:11.693Z,118.12
2022-11-08T07:38:11.682Z,118.12
2022-11-08T07:39:11.653Z,123.75
2022-11-08T07:40:12.849Z,123.75
2022-11-08T07:41:11.635Z,129.38
2022-11-08T07:42:11.644Z,129.38
2022-11-08T07:43:13.078Z,140.62
2022-11-08T07:44:11.612Z,135.00
2022-11-08T07:45:11.591Z,140.62
2022-11-08T07:46:11.596Z,140.62
2022-11-08T07:47:11.594Z,146.25
2022-11-08T07:48:12.849Z,151.88
2022-11-08T07:49:11.550Z,151.88
2022-11-08T07:50:14.270Z,151.88
2022-11-08T07:51:12.544Z,157.50
2022-11-08T07:52:11.515Z,157.50
2022-11-08T07:53:11.515Z,163.12
2022-11-08T07:54:11.586Z,163.12
2022-11-08T07:55:11.482Z,163.12
2022-11-08T07:56:11.484Z,157.50
2022-11-08T07:57:11.460Z,163.12
2022-11-08T07:58:11.456Z,163.12
2022-11-08T07:59:11.433Z,146.25
2022-11-08T08:00:11.441Z,146.25
2022-11-08T08:01:11.440Z,157.50
2022-11-08T08:02:11.469Z,151.88
2022-11-08T08:03:12.248Z,151.88
2022-11-08T08:04:11.647Z,157.50
2022-11-08T08:05:11.365Z,174.38
2022-11-08T08:06:11.388Z,168.75
2022-11-08T08:07:11.621Z,168.75
2022-11-08T08:08:11.315Z,174.38
2022-11-08T08:09:11.316Z,191.25
2022-11-08T08:10:11.581Z,191.25
2022-11-08T08:11:11.307Z,196.88
2022-11-08T08:12:11.283Z,191.25
2022-11-08T08:13:11.285Z,191.25
2022-11-08T08:14:11.267Z,185.62
2022-11-08T08:15:11.248Z,185.62
2022-11-08T08:16:11.520Z,180.00
2022-11-08T08:17:11.231Z,180.00
2022-11-08T08:18:11.236Z,185.62
2022-11-08T08:19:11.206Z,180.00
2022-11-08T08:20:11.207Z,185.62
2022-11-08T08:21:11.187Z,191.25
2022-11-08T08:22:11.167Z,208.12
2022-11-08T08:23:12.287Z,208.12
2022-11-08T08:24:11.169Z,202.50
2022-11-08T08:25:11.138Z,191.25
2022-11-08T08:26:11.148Z,191.25
2022-11-08T08:27:11.124Z,196.88
2022-11-08T08:28:11.105Z,196.88
2022-11-08T08:29:11.097Z,202.50
2022-11-08T08:30:11.555Z,208.12
2022-11-08T08:31:11.089Z,208.12
2022-11-08T08:32:11.058Z,208.12
2022-11-08T08:34:11.038Z,213.75
2022-11-08T08:35:11.019Z,219.38
2022-11-08T08:36:11.029Z,219.38
2022-11-08T08:37:11.000Z,225.00
2022-11-08T08:38:10.992Z,225.00
2022-11-08T08:39:10.970Z,225.00
2022-11-08T08:40:11.255Z,225.00
2022-11-08T08:41:10.981Z,236.25
2022-11-08T08:42:10.943Z,236.25
2022-11-08T08:43:11.853Z,253.12
2022-11-08T08:44:10.932Z,264.38
2022-11-08T08:45:14.925Z,270.00
2022-11-08T08:46:11.304Z,270.00
2022-11-08T08:47:10.900Z,270.00
2022-11-08T08:48:10.909Z,258.75
2022-11-08T08:49:10.871Z,270.00
2022-11-08T08:50:10.890Z,270.00
2022-11-08T08:51:10.864Z,264.38
2022-11-08T08:52:10.834Z,270.00
2022-11-08T08:53:10.884Z,270.00
2022-11-08T08:54:11.063Z,270.00
2022-11-08T08:55:10.806Z,275.62
2022-11-08T08:56:10.807Z,275.62
2022-11-08T08:57:10.812Z,281.25
2022-11-08T08:58:10.785Z,281.25
2022-11-08T09:02:11.714Z,292.50
2022-11-08T09:03:11.002Z,292.50
2022-11-08T09:04:10.720Z,298.12
2022-11-08T09:05:10.802Z,298.12
2022-11-08T09:06:10.711Z,298.12
2022-11-08T09:07:10.793Z,298.12
2022-11-08T09:08:10.808Z,298.12
2022-11-08T09:09:11.204Z,298.12
2022-11-08T09:10:10.704Z,298.12
2022-11-08T09:11:10.756Z,298.12
2022-11-08T09:12:11.902Z,292.50
2022-11-08T09:13:10.675Z,286.88
2022-11-08T09:14:10.986Z,286.88
2022-11-08T09:15:10.575Z,281.25
2022-11-08T09:16:10.582Z,275.62
2022-11-08T09:17:10.555Z,270.00
2022-11-08T09:18:10.606Z,264.38
2022-11-08T09:19:10.516Z,264.38
2022-11-08T09:20:10.523Z,264.38
2022-11-08T09:21:10.518Z,264.38
2022-11-08T09:22:10.611Z,264.38
2022-11-08T09:23:10.757Z,264.38
2022-11-08T09:24:10.481Z,264.38
2022-11-08T09:25:10.504Z,264.38
2022-11-08T09:26:10.455Z,264.38
2022-11-08T09:27:10.448Z,270.00
2022-11-08T09:28:10.412Z,270.00
2022-11-08T09:29:10.400Z,264.38
2022-11-08T09:30:10.663Z,264.38
2022-11-08T09:31:10.421Z,264.38
2022-11-08T09:32:10.368Z,258.75
2022-11-08T09:33:10.403Z,258.75
2022-11-08T09:34:10.347Z,258.75
2022-11-08T09:35:10.340Z,253.12
2022-11-08T09:36:10.328Z,247.50
2022-11-08T09:37:10.329Z,241.88
2022-11-08T09:38:10.312Z,236.25
2022-11-08T09:39:10.308Z,230.62
2022-11-08T09:40:10.384Z,225.00
2022-11-08T09:41:10.279Z,213.75
2022-11-08T09:42:10.257Z,208.12
2022-11-08T09:43:10.240Z,202.50
2022-11-08T09:44:10.232Z,191.25
2022-11-08T09:45:10.225Z,185.62
2022-11-08T09:46:10.234Z,174.38
2022-11-08T09:47:10.200Z,168.75
2022-11-08T09:48:10.180Z,163.12
2022-11-08T09:49:10.169Z,163.12
2022-11-08T09:50:10.198Z,163.12
2022-11-08T09:51:11.010Z,157.50
2022-11-08T09:52:10.141Z,157.50
2022-11-08T09:53:10.152Z,157.50
2022-11-08T09:54:10.110Z,163.12
2022-11-08T09:55:10.109Z,168.75
2022-11-08T09:56:10.101Z,168.75
2022-11-08T09:57:10.083Z,174.38
2022-11-08T09:58:10.063Z,174.38
2022-11-08T09:59:10.052Z,180.00
2022-11-08T10:00:10.052Z,185.62
2022-11-08T10:01:10.047Z,191.25
2022-11-08T10:02:10.145Z,196.88
2022-11-08T10:03:10.069Z,202.50
2022-11-08T10:04:09.993Z,208.12
2022-11-08T10:05:09.978Z,213.75
2022-11-08T10:06:09.996Z,225.00
2022-11-08T10:07:10.138Z,236.25
2022-11-08T10:08:09.950Z,241.88
2022-11-08T10:09:10.227Z,253.12
2022-11-08T10:10:10.216Z,258.75
2022-11-08T10:11:09.938Z,258.75
2022-11-08T10:12:09.910Z,258.75
2022-11-08T10:13:10.170Z,258.75
2022-11-08T10:14:09.873Z,258.75
2022-11-08T10:15:09.876Z,253.12
2022-11-08T10:16:09.886Z,253.12
2022-11-08T10:17:09.931Z,258.75
2022-11-08T10:18:09.836Z,258.75
2022-11-08T10:19:10.137Z,264.38
2022-11-08T10:20:10.076Z,264.38
2022-11-08T10:21:09.815Z,264.38
2022-11-08T10:22:09.785Z,270.00
2022-11-08T10:23:10.044Z,275.62
2022-11-08T10:24:09.755Z,275.62
2022-11-08T10:25:09.754Z,281.25
2022-11-08T10:26:10.123Z,281.25
2022-11-08T10:27:09.746Z,286.88
2022-11-08T10:28:09.715Z,286.88
2022-11-08T10:29:09.734Z,286.88
2022-11-08T10:30:09.959Z,286.88
2022-11-08T10:31:09.698Z,286.88
2022-11-08T10:32:09.715Z,286.88
2022-11-08T10:33:09.668Z,286.88
2022-11-08T10:34:09.650Z,281.25
2022-11-08T10:35:09.648Z,281.25
2022-11-08T10:36:09.648Z,281.25
2022-11-08T10:37:09.630Z,275.62
2022-11-08T10:38:09.600Z,275.62
2022-11-08T10:39:09.588Z,270.00
2022-11-08T10:40:09.582Z,270.00
2022-11-08T10:41:09.587Z,264.38
2022-11-08T10:42:09.553Z,264.38
2022-11-08T10:43:09.733Z,264.38
2022-11-08T10:44:09.529Z,264.38
2022-11-08T10:45:09.508Z,270.00
2022-11-08T10:46:09.823Z,270.00
2022-11-08T10:47:09.503Z,275.62
2022-11-08T10:48:09.486Z,275.62
2022-11-08T10:49:09.480Z,281.25
2022-11-08T10:50:09.475Z,281.25
2022-11-08T10:51:09.481Z,281.25
2022-11-08T10:52:09.432Z,281.25
2022-11-08T10:53:09.692Z,281.25
2022-11-08T10:54:09.413Z,281.25
2022-11-08T10:55:09.415Z,286.88
2022-11-08T10:56:09.429Z,286.88
2022-11-08T10:57:09.385Z,286.88
2022-11-08T10:58:09.369Z,292.50
2022-11-08T10:59:09.354Z,292.50
2022-11-08T11:00:09.352Z,292.50
2022-11-08T11:01:09.351Z,292.50
2022-11-08T11:02:09.395Z,286.88
2022-11-08T11:03:09.309Z,286.88
2022-11-08T11:04:09.293Z,281.25
2022-11-08T11:05:09.302Z,281.25
2022-11-08T11:06:09.310Z,275.62
2022-11-08T11:07:09.386Z,275.62
2022-11-08T11:08:09.244Z,275.62
2022-11-08T11:09:09.513Z,275.62
2022-11-08T11:10:09.245Z,275.62
2022-11-08T11:11:09.208Z,281.25
2022-11-08T11:12:09.202Z,281.25
2022-11-08T11:13:09.195Z,286.88
2022-11-08T11:14:10.818Z,286.88
2022-11-08T11:15:09.171Z,292.50
2022-11-08T11:16:09.154Z,292.50
2022-11-08T11:17:09.413Z,292.50
2022-11-08T11:18:09.123Z,292.50
2022-11-08T11:19:09.125Z,298.12
2022-11-08T11:20:09.133Z,298.12
2022-11-08T11:21:09.103Z,303.75
2022-11-08T11:22:09.073Z,309.38
2022-11-08T11:23:09.856Z,309.38
2022-11-08T11:24:09.104Z,309.38
2022-11-08T11:25:09.056Z,309.38
2022-11-08T11:26:09.053Z,309.38
2022-11-08T11:27:09.698Z,309.38
2022-11-08T11:28:09.005Z,309.38
2022-11-08T11:29:09.000Z,309.38
2022-11-08T11:30:11.779Z,303.75
2022-11-08T11:31:08.977Z,298.12
2022-11-08T11:32:08.946Z,298.12
2022-11-08T11:33:09.261Z,286.88
2022-11-08T11:34:08.938Z,281.25
2022-11-08T11:35:08.947Z,275.62
2022-11-08T11:36:13.317Z,270.00
2022-11-08T11:37:08.919Z,264.38
2022-11-08T11:38:08.877Z,264.38
2022-11-08T11:39:08.901Z,258.75
2022-11-08T11:40:08.889Z,258.75
2022-11-08T11:41:11.073Z,253.12
2022-11-08T11:42:31.160Z,253.12
2022-11-08T11:43:10.099Z,253.12
2022-11-08T11:44:08.828Z,247.50
2022-11-08T11:45:08.833Z,247.50
2022-11-08T11:46:08.841Z,247.50
2022-11-08T11:47:08.806Z,247.50
2022-11-08T11:48:08.777Z,247.50
2022-11-08T11:49:09.031Z,253.12
2022-11-08T11:50:09.036Z,258.75
2022-11-08T11:51:08.754Z,264.38
2022-11-08T11:52:08.730Z,270.00
2022-11-08T11:53:09.002Z,275.62
2022-11-08T11:54:08.699Z,281.25
2022-11-08T11:55:08.720Z,286.88
2022-11-08T11:56:08.690Z,292.50
2022-11-08T11:57:08.671Z,292.50
2022-11-08T11:58:08.659Z,292.50
2022-11-08T11:59:08.653Z,292.50
2022-11-08T12:00:08.640Z,292.50
2022-11-08T12:01:14.073Z,286.88
2022-11-08T12:02:09.631Z,286.88
2022-11-08T12:03:08.901Z,286.88
2022-11-08T12:04:08.591Z,281.25
2022-11-08T12:05:08.572Z,281.25
2022-11-08T12:06:08.882Z,275.62
2022-11-08T12:07:08.584Z,275.62
2022-11-08T12:08:08.542Z,270.00
2022-11-08T12:09:08.522Z,264.38
2022-11-08T12:10:08.532Z,264.38
2022-11-08T12:11:08.503Z,258.75
2022-11-08T12:12:08.484Z,253.12
2022-11-08T12:13:08.493Z,247.50
2022-11-08T12:14:08.461Z,247.50
2022-11-08T12:15:08.482Z,253.12
2022-11-08T12:16:08.477Z,253.12
2022-11-08T12:17:08.431Z,253.12
2022-11-08T12:18:08.420Z,247.50
2022-11-08T12:19:08.459Z,253.12
2022-11-08T12:20:08.392Z,253.12
2022-11-08T12:21:08.435Z,253.12
2022-11-08T12:22:08.366Z,258.75
2022-11-08T12:23:08.384Z,258.75
2022-11-08T12:24:08.340Z,264.38
2022-11-08T12:25:08.334Z,264.38
2022-11-08T12:26:08.378Z,264.38
2022-11-08T12:27:08.333Z,270.00
2022-11-08T12:28:08.295Z,270.00
2022-11-08T12:29:08.310Z,264.38
2022-11-08T12:30:08.289Z,258.75
2022-11-08T12:31:08.276Z,253.12
2022-11-08T12:32:09.275Z,247.50
2022-11-08T12:33:08.279Z,236.25
2022-11-08T12:34:08.224Z,230.62
2022-11-08T12:35:08.237Z,230.62
2022-11-08T12:36:08.256Z,225.00
2022-11-08T12:37:08.189Z,225.00
2022-11-08T12:38:08.182Z,230.62
2022-11-08T12:39:08.449Z,230.62
2022-11-08T12:40:08.171Z,225.00
2022-11-08T12:41:08.164Z,230.62
2022-11-08T12:42:08.153Z,230.62
2022-11-08T12:43:08.127Z,236.25
2022-11-08T12:44:08.116Z,241.88
2022-11-08T12:45:08.098Z,247.50
2022-11-08T12:46:08.158Z,247.50
2022-11-08T12:47:08.081Z,247.50
2022-11-08T12:48:08.077Z,247.50
2022-11-08T12:49:08.059Z,247.50
2022-11-08T12:50:08.051Z,247.50
2022-11-08T12:51:08.898Z,247.50
2022-11-08T12:52:08.993Z,247.50
2022-11-08T12:53:08.021Z,247.50
2022-11-08T12:54:07.992Z,241.88
2022-11-08T12:55:07.982Z,241.88
2022-11-08T12:56:08.118Z,241.88
2022-11-08T12:57:08.012Z,241.88
2022-11-08T12:58:07.941Z,241.88